Time;durP1;ratioP1;P1;durP2;ratioP2;P2;SDS_P1;SDS_P2;PMS_P1;PMS_P2;Temp;Humidity;BMP_temperature;BMP_pressure;BME280_temperature;BME280_humidity;BME280_pressure;Samples;Min_cycle;Max_cycle;Signal;HPM_P1;HPM_P2
2022/12/09 00:00:57;;;;;;;6.70;5.90;;;1.70;99.90;;;;;;5097992;28;20429;-42
2022/12/09 00:03:23;;;;;;;9.87;6.10;;;1.70;99.90;;;;;;5097528;28;20485;-43
2022/12/09 00:05:49;;;;;;;6.80;6.00;;;1.70;99.90;;;;;;5115317;28;20441;-43
2022/12/09 00:08:15;;;;;;;9.57;6.67;;;1.60;99.90;;;;;;5115087;28;20311;-42
2022/12/09 00:10:43;;;;;;;7.70;6.70;;;1.60;99.90;;;;;;5084383;28;20452;-44
2022/12/09 00:13:09;;;;;;;7.27;6.57;;;1.60;99.90;;;;;;5097790;28;20871;-43
2022/12/09 00:15:38;;;;;;;6.90;5.87;;;1.60;99.90;;;;;;5098905;28;20498;-42
2022/12/09 00:18:04;;;;;;;7.93;6.47;;;1.60;99.90;;;;;;5100571;28;20185;-43
2022/12/09 00:20:30;;;;;;;7.53;6.33;;;1.60;99.90;;;;;;5121341;28;20409;-43
2022/12/09 00:22:56;;;;;;;8.63;5.67;;;1.60;99.90;;;;;;5121881;28;20424;-43
2022/12/09 00:25:21;;;;;;;7.50;6.53;;;1.50;99.90;;;;;;5102959;28;20178;-42
2022/12/09 00:27:47;;;;;;;6.63;5.93;;;1.50;99.90;;;;;;5121603;28;20417;-44
2022/12/09 00:30:13;;;;;;;8.40;6.17;;;1.50;99.90;;;;;;5103045;28;20199;-44
2022/12/09 00:32:38;;;;;;;6.77;5.93;;;1.50;99.90;;;;;;5121340;28;20256;-45
2022/12/09 00:35:04;;;;;;;6.27;5.63;;;1.40;99.90;;;;;;5120827;28;20172;-45
2022/12/09 00:37:30;;;;;;;7.77;5.97;;;1.40;99.90;;;;;;5103023;28;20188;-45
2022/12/09 00:39:55;;;;;;;7.83;5.93;;;1.40;99.90;;;;;;5119955;28;20478;-44
2022/12/09 00:42:21;;;;;;;7.00;5.70;;;1.40;99.90;;;;;;5102027;28;20207;-45
2022/12/09 00:44:46;;;;;;;6.53;5.80;;;1.30;99.90;;;;;;5120421;28;20557;-43
2022/12/09 00:47:12;;;;;;;8.00;6.27;;;1.30;99.90;;;;;;5120915;28;20215;-44
2022/12/09 00:49:38;;;;;;;7.57;6.20;;;1.30;99.90;;;;;;5120392;28;20207;-45
2022/12/09 00:52:03;;;;;;;6.40;5.73;;;1.30;99.90;;;;;;5120193;28;20550;-46
2022/12/09 00:54:29;;;;;;;7.40;6.47;;;1.20;99.90;;;;;;5120810;28;20180;-44
2022/12/09 00:56:55;;;;;;;7.07;6.23;;;1.20;99.90;;;;;;5120891;28;20207;-43
2022/12/09 00:59:21;;;;;;;6.93;6.10;;;1.20;99.90;;;;;;5120529;28;20185;-43
2022/12/09 01:01:47;;;;;;;6.67;5.63;;;1.20;99.90;;;;;;5120663;28;20498;-45
2022/12/09 01:04:12;;;;;;;8.63;6.50;;;1.10;99.90;;;;;;5120161;28;20190;-43
2022/12/09 01:06:38;;;;;;;6.20;5.60;;;1.10;99.90;;;;;;5120612;28;20188;-43
2022/12/09 01:09:04;;;;;;;8.13;6.50;;;1.10;99.90;;;;;;5120299;28;20290;-42
2022/12/09 01:11:29;;;;;;;7.47;6.60;;;1.10;99.90;;;;;;5120119;28;20485;-43
2022/12/09 01:14:01;;;;;;;8.97;7.50;;;1.10;99.90;;;;;;5120404;28;20425;-43
2022/12/09 01:16:29;;;;;;;8.00;6.40;;;1.00;99.90;;;;;;5119707;28;20211;-44
2022/12/09 01:18:58;;;;;;;7.00;6.03;;;1.00;99.90;;;;;;5119298;28;20425;-44
2022/12/09 01:21:27;;;;;;;7.00;6.03;;;1.00;99.90;;;;;;5118982;28;20810;-42
2022/12/09 01:23:52;;;;;;;8.27;6.20;;;1.00;99.90;;;;;;5119876;28;20461;-44
2022/12/09 01:26:18;;;;;;;7.63;6.60;;;0.90;99.90;;;;;;5119998;28;20425;-43
2022/12/09 01:28:43;;;;;;;7.73;6.60;;;0.90;99.90;;;;;;5120105;28;20219;-42
2022/12/09 01:31:12;;;;;;;7.97;6.30;;;0.90;99.90;;;;;;5119853;28;20255;-42
2022/12/09 01:33:39;;;;;;;7.63;6.20;;;0.90;99.90;;;;;;5118772;28;20286;-44
2022/12/09 01:36:10;;;;;;;7.30;6.30;;;0.90;99.90;;;;;;5098215;28;20546;-44
2022/12/09 01:38:36;;;;;;;7.70;6.13;;;0.80;99.90;;;;;;5098172;28;20435;-43
2022/12/09 01:41:02;;;;;;;10.53;7.13;;;0.80;99.90;;;;;;5098685;28;20487;-43
2022/12/09 01:43:28;;;;;;;5.47;4.93;;;0.80;99.90;;;;;;5099736;28;20203;-43
2022/12/09 01:45:54;;;;;;;6.20;5.53;;;0.80;99.90;;;;;;5099112;28;20180;-42
2022/12/09 01:48:22;;;;;;;8.30;5.90;;;0.70;99.90;;;;;;5099206;28;20200;-44
2022/12/09 01:50:55;;;;;;;6.23;5.43;;;0.70;99.90;;;;;;5081527;28;20446;-43
2022/12/09 01:53:24;;;;;;;9.10;6.40;;;0.70;99.90;;;;;;5081627;28;20670;-45
2022/12/09 01:55:49;;;;;;;9.00;6.47;;;0.70;99.90;;;;;;5081054;28;20513;-43
2022/12/09 01:58:16;;;;;;;6.73;5.43;;;0.70;99.90;;;;;;5099214;28;20454;-44
2022/12/09 02:00:42;;;;;;;7.10;5.80;;;0.70;99.90;;;;;;5081281;28;20191;-42
2022/12/09 02:03:07;;;;;;;7.13;6.30;;;0.60;99.90;;;;;;5099048;28;20427;-43
2022/12/09 02:05:33;;;;;;;7.00;5.30;;;0.60;99.90;;;;;;5098778;28;20840;-42
2022/12/09 02:07:59;;;;;;;6.67;5.57;;;0.60;99.90;;;;;;5080604;28;20176;-42
2022/12/09 02:10:25;;;;;;;8.47;6.50;;;0.60;99.90;;;;;;5099462;28;20172;-41
2022/12/09 02:13:28;;;;;;;7.23;5.83;;;0.60;99.90;;;;;;5093851;28;20361;-42
2022/12/09 02:15:57;;;;;;;6.63;5.93;;;0.50;99.90;;;;;;5098260;28;20425;-42
2022/12/09 02:18:49;;;;;;;8.30;6.90;;;0.50;99.90;;;;;;5096997;28;20426;-42
2022/12/09 02:21:17;;;;;;;7.60;6.20;;;0.50;99.90;;;;;;5098061;28;20695;-43
2022/12/09 02:27:42;;;;;;;6.77;6.07;;;0.40;99.90;;;;;;5023565;28;20496;-43
2022/12/09 02:30:14;;;;;;;7.47;6.43;;;0.40;99.90;;;;;;5080625;28;20461;-42
2022/12/09 02:32:47;;;;;;;7.50;6.70;;;0.40;99.90;;;;;;5097382;28;20446;-42
2022/12/09 02:35:23;;;;;;;8.73;6.90;;;0.40;99.90;;;;;;5097267;28;20407;-42
2022/12/09 02:37:51;;;;;;;9.27;7.63;;;0.40;99.90;;;;;;5097104;28;20480;-46
2022/12/09 02:40:21;;;;;;;9.20;7.50;;;0.40;99.90;;;;;;5097170;28;20430;-41
2022/12/09 02:42:47;;;;;;;8.30;7.17;;;0.40;99.90;;;;;;5097214;28;20681;-42
2022/12/09 02:45:14;;;;;;;11.93;8.43;;;0.40;99.90;;;;;;5097237;28;20414;-41
2022/12/09 02:47:43;;;;;;;9.30;8.07;;;0.30;99.90;;;;;;5097483;28;20422;-42
2022/12/09 02:50:12;;;;;;;9.87;8.10;;;0.30;99.90;;;;;;5098524;28;20468;-41
2022/12/09 02:52:38;;;;;;;9.27;8.37;;;0.30;99.90;;;;;;5097020;28;20419;-41
2022/12/09 02:55:06;;;;;;;9.40;7.53;;;0.30;99.90;;;;;;5097083;28;20398;-43
2022/12/09 02:57:33;;;;;;;9.53;8.20;;;0.30;99.90;;;;;;5098098;28;20478;-41
2022/12/09 02:59:59;;;;;;;10.00;7.83;;;0.30;99.90;;;;;;5096769;28;20840;-42
2022/12/09 03:02:27;;;;;;;7.50;6.50;;;0.30;99.90;;;;;;5096675;28;20468;-41
2022/12/09 03:05:15;;;;;;;10.83;7.50;;;0.30;99.90;;;;;;5096768;28;20585;-42
2022/12/09 03:07:51;;;;;;;9.00;7.40;;;0.30;99.90;;;;;;5087217;28;20443;-41
2022/12/09 03:10:26;;;;;;;10.00;8.17;;;0.30;99.90;;;;;;5097440;28;20461;-41
2022/12/09 03:13:00;;;;;;;9.40;7.40;;;0.30;99.90;;;;;;5097560;28;20478;-42
2022/12/09 03:15:29;;;;;;;9.60;8.57;;;0.30;99.90;;;;;;5080293;28;20895;-42
2022/12/09 03:17:57;;;;;;;8.67;7.77;;;0.20;99.90;;;;;;5097791;28;20415;-42
2022/12/09 03:20:26;;;;;;;9.00;7.50;;;0.20;99.90;;;;;;5079902;28;20749;-43
2022/12/09 03:22:55;;;;;;;8.93;7.47;;;0.20;99.90;;;;;;5079334;28;20434;-42
2022/12/09 03:25:28;;;;;;;10.07;7.60;;;0.20;99.90;;;;;;5079811;28;20422;-42
2022/12/09 03:28:06;;;;;;;9.70;8.30;;;0.20;99.90;;;;;;5080057;28;20430;-42
2022/12/09 03:30:38;;;;;;;11.47;7.90;;;0.20;99.90;;;;;;5079948;28;20792;-42
2022/12/09 03:33:04;;;;;;;8.87;7.97;;;0.20;99.90;;;;;;5080013;28;20429;-42
2022/12/09 03:35:34;;;;;;;11.00;7.70;;;0.20;99.90;;;;;;5097597;28;20390;-42
2022/12/09 03:38:03;;;;;;;8.80;7.70;;;0.20;99.90;;;;;;5097791;28;20180;-42
2022/12/09 03:40:30;;;;;;;8.73;7.83;;;0.20;99.90;;;;;;5079917;28;20418;-43
2022/12/09 03:43:06;;;;;;;10.40;8.47;;;0.20;99.90;;;;;;5079473;28;20441;-41
2022/12/09 03:45:32;;;;;;;11.00;7.60;;;0.20;99.90;;;;;;5082322;28;20418;-43
2022/12/09 03:47:58;;;;;;;8.97;8.07;;;0.20;99.90;;;;;;5084097;28;20839;-42
2022/12/09 03:50:27;;;;;;;8.60;7.70;;;0.20;99.90;;;;;;5101724;28;20568;-42
2022/12/09 03:53:04;;;;;;;9.63;7.50;;;0.20;99.90;;;;;;5083495;28;20409;-43
2022/12/09 03:55:33;;;;;;;8.60;7.70;;;0.20;99.90;;;;;;5101531;28;20526;-42
2022/12/09 03:58:02;;;;;;;9.73;8.20;;;0.10;99.90;;;;;;5101327;28;20433;-44
2022/12/09 04:00:28;;;;;;;9.27;7.77;;;0.20;99.90;;;;;;5083638;28;20526;-42
2022/12/09 04:02:54;;;;;;;11.60;7.83;;;0.10;99.90;;;;;;5082611;28;20474;-46
2022/12/09 04:05:19;;;;;;;9.33;8.33;;;0.10;99.90;;;;;;5101331;28;20465;-42
2022/12/09 04:07:45;;;;;;;8.43;7.60;;;0.20;99.90;;;;;;5100895;28;20188;-43
2022/12/09 04:10:10;;;;;;;10.03;8.33;;;0.10;99.90;;;;;;5100469;28;20204;-43
2022/12/09 04:12:36;;;;;;;8.37;7.10;;;0.10;99.90;;;;;;5100626;28;20260;-43
2022/12/09 04:15:02;;;;;;;7.90;7.10;;;0.10;99.90;;;;;;5099772;28;20513;-43
2022/12/09 04:17:27;;;;;;;9.67;8.33;;;0.10;99.90;;;;;;5099708;28;20181;-42
2022/12/09 04:19:53;;;;;;;9.90;8.30;;;0.10;99.90;;;;;;5099058;28;20183;-42
2022/12/09 04:22:18;;;;;;;10.03;8.20;;;0.10;99.90;;;;;;5099649;28;20447;-43
2022/12/09 04:24:44;;;;;;;9.50;8.27;;;0.10;99.90;;;;;;5099473;28;20200;-45
2022/12/09 04:27:11;;;;;;;10.87;8.50;;;0.10;99.90;;;;;;5099447;28;20559;-44
2022/12/09 04:29:36;;;;;;;8.30;7.30;;;0.10;99.90;;;;;;5099917;28;20590;-43
2022/12/09 04:32:02;;;;;;;10.83;8.37;;;0.10;99.90;;;;;;5099466;28;20462;-42
2022/12/09 04:34:28;;;;;;;9.13;8.23;;;0.10;99.90;;;;;;5100749;28;20187;-43
2022/12/09 04:36:53;;;;;;;8.43;7.27;;;0.10;99.90;;;;;;5082993;28;20204;-44
2022/12/09 04:39:19;;;;;;;8.77;7.97;;;0.10;99.90;;;;;;5098882;28;20267;-45
2022/12/09 04:41:45;;;;;;;8.80;7.77;;;0.10;99.90;;;;;;5098673;28;20348;-42
2022/12/09 04:44:10;;;;;;;9.20;8.00;;;0.10;99.90;;;;;;5098660;28;20176;-43
2022/12/09 04:46:36;;;;;;;9.57;8.50;;;0.10;99.90;;;;;;5099361;28;20420;-41
2022/12/09 04:49:02;;;;;;;9.90;8.77;;;0.10;99.90;;;;;;5098425;28;20196;-43
2022/12/09 04:51:27;;;;;;;10.87;9.40;;;0.10;99.90;;;;;;5098099;28;20268;-44
2022/12/09 04:53:53;;;;;;;11.43;9.87;;;0.10;99.90;;;;;;5097517;28;20410;-42
2022/12/09 04:56:20;;;;;;;12.97;10.33;;;0.10;99.90;;;;;;5095575;28;20503;-42
2022/12/09 04:58:46;;;;;;;13.23;10.77;;;0.10;99.90;;;;;;5079235;28;20199;-42
2022/12/09 05:01:14;;;;;;;12.07;10.87;;;0.10;99.90;;;;;;5096850;28;20426;-42
2022/12/09 05:03:40;;;;;;;11.73;10.53;;;0.10;99.90;;;;;;5098299;28;20728;-42
2022/12/09 05:06:08;;;;;;;11.27;9.90;;;0.10;99.90;;;;;;5097602;28;20414;-42
2022/12/09 05:08:33;;;;;;;12.37;10.63;;;0.10;99.90;;;;;;5096782;28;20231;-43
2022/12/09 05:11:00;;;;;;;13.30;10.90;;;0.10;99.90;;;;;;5093298;28;20831;-44
2022/12/09 05:13:28;;;;;;;13.43;10.10;;;0.10;99.90;;;;;;5094118;28;20188;-43
2022/12/09 05:16:03;;;;;;;11.83;10.57;;;0.10;99.90;;;;;;5094882;28;20403;-44
2022/12/09 05:18:29;;;;;;;12.00;10.37;;;0.20;99.90;;;;;;5096319;28;20429;-43
2022/12/09 05:20:54;;;;;;;13.40;10.70;;;0.20;99.90;;;;;;5096242;28;20957;-42
2022/12/09 05:23:20;;;;;;;13.23;10.97;;;0.20;99.90;;;;;;5095658;28;20184;-42
2022/12/09 05:25:46;;;;;;;13.20;10.60;;;0.20;99.90;;;;;;5095680;28;20719;-43
2022/12/09 05:28:11;;;;;;;14.40;9.80;;;0.20;1.00;;;;;;5097101;28;20478;-42
2022/12/09 05:30:37;;;;;;;15.23;11.20;;;0.20;1.00;;;;;;5078308;28;20259;-42
2022/12/09 05:33:03;;;;;;;15.63;11.03;;;0.20;1.00;;;;;;5094355;28;20185;-43
2022/12/09 05:35:29;;;;;;;13.27;11.30;;;0.20;1.00;;;;;;5092775;28;20175;-42
2022/12/09 05:37:54;;;;;;;12.60;10.33;;;0.20;1.00;;;;;;5094673;28;20864;-43
2022/12/09 05:40:20;;;;;;;12.10;10.27;;;0.20;1.00;;;;;;5092969;28;20452;-43
2022/12/09 05:42:45;;;;;;;11.67;9.73;;;0.20;1.00;;;;;;5093744;28;20212;-43
2022/12/09 05:45:11;;;;;;;13.40;10.63;;;0.20;1.00;;;;;;5093619;28;20183;-42
2022/12/09 05:47:37;;;;;;;10.93;9.83;;;0.20;1.00;;;;;;5092680;28;20191;-43
2022/12/09 05:50:04;;;;;;;11.63;9.67;;;0.20;1.00;;;;;;5093303;28;20627;-42
2022/12/09 05:52:30;;;;;;;10.60;9.50;;;0.30;1.00;;;;;;5093612;28;20456;-41
2022/12/09 05:54:55;;;;;;;11.53;9.80;;;0.30;1.00;;;;;;5093896;28;20403;-42
2022/12/09 05:57:21;;;;;;;14.10;10.23;;;0.30;1.00;;;;;;5094276;28;20443;-42
2022/12/09 05:59:47;;;;;;;13.10;10.87;;;0.30;1.00;;;;;;5092070;28;20227;-41
2022/12/09 06:02:13;;;;;;;14.70;10.37;;;0.30;1.00;;;;;;5098597;28;20438;-43
2022/12/09 06:04:38;;;;;;;11.10;9.73;;;0.30;1.00;;;;;;5101159;28;20188;-44
2022/12/09 06:07:04;;;;;;;16.63;10.83;;;0.30;1.00;;;;;;5093999;28;20177;-45
2022/12/09 06:09:30;;;;;;;12.40;10.83;;;0.30;1.00;;;;;;5092802;28;20482;-42
2022/12/09 06:11:55;;;;;;;14.57;11.17;;;0.30;1.00;;;;;;5093819;28;20220;-43
2022/12/09 06:14:21;;;;;;;11.07;9.93;;;0.40;1.00;;;;;;5092851;28;20168;-43
2022/12/09 06:16:47;;;;;;;12.80;10.03;;;0.30;1.00;;;;;;5091431;28;20185;-43
2022/12/09 06:19:12;;;;;;;13.50;10.30;;;0.40;1.00;;;;;;5088171;28;20736;-43
2022/12/09 06:21:39;;;;;;;11.20;9.43;;;0.40;1.00;;;;;;5087688;28;21564;-43
2022/12/09 06:24:06;;;;;;;13.43;10.80;;;0.40;1.00;;;;;;5090227;28;20168;-43
2022/12/09 06:26:31;;;;;;;11.40;10.20;;;0.40;1.00;;;;;;5091546;28;20433;-42
2022/12/09 06:28:58;;;;;;;11.10;10.00;;;0.40;1.00;;;;;;5088339;28;20462;-42
2022/12/09 06:31:24;;;;;;;13.30;10.40;;;0.40;1.00;;;;;;5085982;28;20559;-42
2022/12/09 06:33:50;;;;;;;11.23;9.83;;;0.40;1.00;;;;;;5088313;28;20445;-44
2022/12/09 06:36:15;;;;;;;11.50;9.53;;;0.40;1.00;;;;;;5071579;28;20832;-42
2022/12/09 06:38:41;;;;;;;13.57;10.67;;;0.40;1.00;;;;;;5090129;28;20494;-44
2022/12/09 06:41:08;;;;;;;11.00;8.97;;;0.40;1.00;;;;;;5089298;28;20168;-44
2022/12/09 06:43:34;;;;;;;14.67;10.13;;;0.50;1.00;;;;;;5087369;28;20184;-43
2022/12/09 06:45:59;;;;;;;11.73;9.63;;;0.50;1.00;;;;;;5071701;28;20442;-42
2022/12/09 06:48:25;;;;;;;12.30;10.50;;;0.50;1.00;;;;;;5091548;28;20423;-42
2022/12/09 06:50:51;;;;;;;13.77;10.90;;;0.50;1.00;;;;;;5092285;28;20172;-42
2022/12/09 06:53:17;;;;;;;12.37;10.30;;;0.50;1.00;;;;;;5093779;28;20180;-42
2022/12/09 06:55:43;;;;;;;12.70;10.80;;;0.50;1.00;;;;;;5088790;28;20609;-43
2022/12/09 06:58:09;;;;;;;13.67;10.50;;;0.50;1.00;;;;;;5089361;28;20433;-45
2022/12/09 07:00:34;;;;;;;12.20;10.90;;;0.60;1.00;;;;;;5089417;28;20414;-42
2022/12/09 07:03:00;;;;;;;13.80;10.67;;;0.60;1.00;;;;;;5087627;28;20173;-43
2022/12/09 07:05:26;;;;;;;11.53;9.80;;;0.60;1.00;;;;;;5086292;28;20414;-41
2022/12/09 07:07:52;;;;;;;13.20;11.50;;;0.60;1.00;;;;;;5086443;28;20188;-44
2022/12/09 07:10:18;;;;;;;14.20;10.53;;;0.70;1.00;;;;;;5084312;28;20659;-44
2022/12/09 07:12:43;;;;;;;13.53;11.20;;;0.60;1.00;;;;;;5080518;28;20466;-43
2022/12/09 07:15:10;;;;;;;12.23;10.93;;;0.70;1.00;;;;;;5087172;28;20425;-44
2022/12/09 07:17:35;;;;;;;16.33;12.23;;;0.70;1.00;;;;;;5090220;28;20184;-44
2022/12/09 07:20:01;;;;;;;13.77;12.33;;;0.80;1.00;;;;;;5090936;28;20612;-42
2022/12/09 07:22:27;;;;;;;14.83;13.10;;;0.80;1.00;;;;;;5112321;28;20209;-46
2022/12/09 07:24:53;;;;;;;22.97;15.80;;;0.80;1.00;;;;;;5113700;28;20187;-43
2022/12/09 07:27:18;;;;;;;16.27;13.37;;;0.90;1.00;;;;;;5113065;28;20278;-42
2022/12/09 07:29:44;;;;;;;17.57;13.87;;;0.90;1.00;;;;;;5112678;28;20556;-44
2022/12/09 07:32:10;;;;;;;15.63;12.80;;;0.90;1.00;;;;;;5111951;28;20587;-42
2022/12/09 07:34:36;;;;;;;15.07;13.10;;;1.00;1.00;;;;;;5108769;28;20168;-43
2022/12/09 07:37:02;;;;;;;15.73;13.07;;;1.00;1.00;;;;;;5111694;28;20480;-44
2022/12/09 07:39:28;;;;;;;14.83;12.97;;;1.00;1.00;;;;;;5112095;28;20779;-43
2022/12/09 07:41:57;;;;;;;16.40;13.07;;;1.10;1.00;;;;;;5111712;28;20209;-47
2022/12/09 07:44:24;;;;;;;14.17;12.50;;;1.10;1.00;;;;;;5112861;28;20558;-43
2022/12/09 07:46:50;;;;;;;13.57;11.60;;;1.20;1.00;;;;;;5114148;28;20428;-43
2022/12/09 07:49:16;;;;;;;16.60;13.07;;;1.20;1.00;;;;;;5115556;28;20453;-45
2022/12/09 07:51:43;;;;;;;16.90;13.13;;;1.30;1.00;;;;;;5116502;28;20248;-43
2022/12/09 07:54:13;;;;;;;16.07;12.43;;;1.40;1.00;;;;;;5113908;28;20414;-43
2022/12/09 07:56:39;;;;;;;14.53;13.00;;;1.40;1.00;;;;;;5094561;28;20472;-44
2022/12/09 07:59:06;;;;;;;16.73;13.10;;;1.50;1.00;;;;;;5110691;28;20450;-44
2022/12/09 08:01:32;;;;;;;17.13;14.27;;;1.60;1.00;;;;;;5112555;28;20418;-44
2022/12/09 08:03:57;;;;;;;17.57;13.80;;;1.70;1.00;;;;;;5111876;28;20799;-44
2022/12/09 08:06:25;;;;;;;19.10;13.40;;;1.80;1.00;;;;;;5113228;28;20180;-46
2022/12/09 08:08:50;;;;;;;15.73;14.13;;;1.90;1.00;;;;;;5113819;28;20199;-45
2022/12/09 08:11:23;;;;;;;16.40;14.40;;;2.00;1.00;;;;;;5112594;28;20944;-43
2022/12/09 08:13:50;;;;;;;16.57;14.77;;;2.10;1.00;;;;;;5110358;28;20299;-44
2022/12/09 08:16:19;;;;;;;14.80;13.03;;;2.20;1.00;;;;;;5110405;28;20406;-44
2022/12/09 08:18:45;;;;;;;17.03;13.97;;;2.40;1.00;;;;;;5111022;28;20416;-42
2022/12/09 08:21:16;;;;;;;15.00;13.10;;;2.50;1.00;;;;;;5091910;28;20410;-43
2022/12/09 08:23:42;;;;;;;14.40;12.27;;;2.60;1.00;;;;;;5109888;28;20425;-44
2022/12/09 08:26:10;;;;;;;15.87;12.30;;;2.70;1.00;;;;;;5092111;28;20432;-46
2022/12/09 08:28:35;;;;;;;15.20;11.87;;;2.70;99.90;;;;;;5094930;28;20615;-44
2022/12/09 08:31:09;;;;;;;14.00;11.77;;;2.80;99.90;;;;;;5112501;28;20504;-44
2022/12/09 08:33:36;;;;;;;15.23;13.00;;;3.00;99.90;;;;;;5115227;28;20172;-43
2022/12/09 08:36:02;;;;;;;13.90;11.47;;;3.10;99.90;;;;;;5100893;28;20417;-44
2022/12/09 08:38:30;;;;;;;18.13;12.60;;;3.20;99.90;;;;;;5116352;28;20428;-44
2022/12/09 08:40:57;;;;;;;16.53;12.87;;;3.30;99.90;;;;;;5119460;28;20726;-45
2022/12/09 08:43:22;;;;;;;13.60;11.70;;;3.40;99.90;;;;;;5101174;28;20557;-44
2022/12/09 08:45:48;;;;;;;13.20;11.80;;;3.50;99.90;;;;;;5117296;28;20667;-44
2022/12/09 08:48:14;;;;;;;14.07;12.53;;;3.60;99.90;;;;;;5083959;28;20649;-44
2022/12/09 08:50:39;;;;;;;16.67;12.50;;;3.70;99.90;;;;;;5100020;28;20188;-43
2022/12/09 08:53:05;;;;;;;19.10;13.10;;;3.70;99.90;;;;;;5118786;28;20215;-44
2022/12/09 08:55:31;;;;;;;14.53;13.00;;;3.80;99.90;;;;;;5116681;28;20203;-43
2022/12/09 08:57:56;;;;;;;14.10;11.80;;;3.80;99.90;;;;;;5115727;28;20577;-43
2022/12/09 09:00:22;;;;;;;16.33;12.10;;;3.80;99.90;;;;;;5116381;28;20580;-43
2022/12/09 09:02:47;;;;;;;16.43;13.20;;;3.80;99.90;;;;;;5116159;28;20198;-43
2022/12/09 09:05:13;;;;;;;15.13;12.90;;;3.90;99.90;;;;;;5116529;28;20214;-44
2022/12/09 09:07:39;;;;;;;13.20;11.60;;;3.90;99.90;;;;;;5099933;28;20188;-42
2022/12/09 09:10:06;;;;;;;13.20;11.80;;;3.90;99.90;;;;;;5118287;28;20329;-42
2022/12/09 09:12:31;;;;;;;12.90;11.40;;;4.00;99.90;;;;;;5109587;28;20224;-42
2022/12/09 09:14:57;;;;;;;14.87;13.13;;;4.00;99.90;;;;;;5116594;28;20444;-42
2022/12/09 09:17:23;;;;;;;20.20;13.00;;;4.00;99.90;;;;;;5117959;28;20608;-43
2022/12/09 09:19:49;;;;;;;13.97;12.47;;;4.00;99.90;;;;;;5115734;28;20261;-45
2022/12/09 09:22:15;;;;;;;16.87;13.67;;;4.00;99.90;;;;;;5116661;28;20180;-44
2022/12/09 09:24:41;;;;;;;16.17;13.33;;;4.10;99.90;;;;;;5116098;28;20437;-43
2022/12/09 09:27:07;;;;;;;17.97;13.13;;;4.10;99.90;;;;;;5117915;28;20441;-44
2022/12/09 09:29:32;;;;;;;15.87;12.60;;;4.10;99.90;;;;;;5118850;28;20521;-43
2022/12/09 09:32:01;;;;;;;14.97;13.00;;;4.20;99.90;;;;;;5114972;28;20523;-43
2022/12/09 09:34:27;;;;;;;16.20;11.60;;;4.20;99.90;;;;;;5116444;28;20202;-45
2022/12/09 09:36:54;;;;;;;16.93;12.93;;;4.30;99.90;;;;;;5116490;28;20418;-45
2022/12/09 09:39:20;;;;;;;15.50;12.67;;;4.30;99.90;;;;;;5116049;28;20418;-43
2022/12/09 09:41:55;;;;;;;14.07;12.63;;;4.40;99.90;;;;;;5116770;28;20768;-42
2022/12/09 09:44:42;;;;;;;16.67;13.07;;;4.40;99.90;;;;;;5116167;28;20416;-44
2022/12/09 09:47:15;;;;;;;16.53;12.37;;;4.50;99.90;;;;;;5116344;27;20429;-43
2022/12/09 09:49:59;;;;;;;17.40;13.17;;;4.50;99.90;;;;;;5115308;28;20462;-43
2022/12/09 09:52:26;;;;;;;14.60;12.13;;;4.60;99.90;;;;;;5113920;28;20441;-44
2022/12/09 09:54:52;;;;;;;15.07;13.30;;;4.60;95.50;;;;;;5114462;28;20410;-42
2022/12/09 09:57:23;;;;;;;15.70;13.40;;;4.70;86.40;;;;;;5115852;28;20704;-42
2022/12/09 09:59:58;;;;;;;14.47;12.97;;;4.70;71.90;;;;;;5115427;28;20279;-43
2022/12/09 10:02:29;;;;;;;16.47;14.50;;;4.80;57.20;;;;;;5116260;28;20536;-43
2022/12/09 10:05:07;;;;;;;15.83;13.40;;;4.90;44.20;;;;;;5116195;28;20786;-43
2022/12/09 10:07:36;;;;;;;16.13;14.43;;;5.00;33.50;;;;;;5116778;28;20413;-42
2022/12/09 10:10:05;;;;;;;16.23;13.13;;;5.00;24.30;;;;;;5099106;28;20488;-42
2022/12/09 10:12:36;;;;;;;14.93;13.23;;;5.10;15.70;;;;;;5117593;28;20465;-43
2022/12/09 10:15:12;;;;;;;15.33;13.60;;;5.20;6.50;;;;;;5116621;28;20424;-43
2022/12/09 10:18:16;;;;;;;17.17;14.47;;;5.20;1.00;;;;;;5098936;28;20408;-43
2022/12/09 10:20:43;;;;;;;15.53;13.93;;;5.20;1.00;;;;;;5043245;28;20435;-43
2022/12/09 10:23:14;;;;;;;18.00;15.33;;;5.30;1.00;;;;;;5097974;28;20694;-43
2022/12/09 10:25:47;;;;;;;16.97;14.30;;;5.30;1.00;;;;;;5061333;28;20449;-42
2022/12/09 10:28:26;;;;;;;17.60;15.43;;;5.40;1.00;;;;;;5060819;28;20439;-45
2022/12/09 10:30:53;;;;;;;17.13;15.33;;;5.40;1.00;;;;;;5078932;28;20519;-43
2022/12/09 10:33:37;;;;;;;15.80;14.03;;;5.50;1.00;;;;;;5079294;28;20466;-43
2022/12/09 10:36:04;;;;;;;15.93;14.30;;;5.50;1.00;;;;;;5078340;28;20494;-43
2022/12/09 10:38:30;;;;;;;16.40;14.33;;;5.60;1.00;;;;;;5097496;28;20419;-44
2022/12/09 10:41:05;;;;;;;16.33;14.10;;;5.60;1.00;;;;;;5098152;28;20817;-46
2022/12/09 10:43:42;;;;;;;19.30;16.30;;;5.70;1.00;;;;;;5077377;28;20830;-42
2022/12/09 10:46:17;;;;;;;19.00;15.30;;;5.60;1.00;;;;;;5094285;28;20473;-45
2022/12/09 10:48:46;;;;;;;19.10;15.50;;;5.60;1.00;;;;;;5077150;28;20465;-44
2022/12/09 10:51:13;;;;;;;15.50;13.90;;;5.60;1.00;;;;;;5094418;28;20749;-42
2022/12/09 10:53:58;;;;;;;15.73;13.93;;;5.60;1.00;;;;;;5094451;28;20696;-43
2022/12/09 10:56:47;;;;;;;17.53;14.90;;;5.60;1.00;;;;;;5075662;28;20418;-44
2022/12/09 10:59:21;;;;;;;16.57;14.80;;;5.60;1.00;;;;;;5047301;28;20434;-43
2022/12/09 11:01:50;;;;;;;17.60;15.70;;;5.60;1.00;;;;;;5095619;28;20429;-44
2022/12/09 11:04:28;;;;;;;21.27;16.13;;;5.70;1.00;;;;;;5095717;28;20495;-44
2022/12/09 11:07:15;;;;;;;16.70;14.10;;;5.80;1.00;;;;;;5093148;28;20864;-43
2022/12/09 11:09:50;;;;;;;16.20;14.00;;;5.80;1.00;;;;;;5078874;28;20478;-44
2022/12/09 11:12:18;;;;;;;17.13;14.53;;;5.90;1.00;;;;;;5093391;28;20454;-44
2022/12/09 11:14:51;;;;;;;18.50;13.93;;;5.90;1.00;;;;;;5095173;28;20465;-43
2022/12/09 11:17:23;;;;;;;17.90;14.17;;;6.00;1.00;;;;;;5094629;28;20418;-45
2022/12/09 11:19:51;;;;;;;18.23;14.80;;;6.00;1.00;;;;;;5078188;28;20957;-43
2022/12/09 11:22:37;;;;;;;16.80;14.73;;;6.00;1.00;;;;;;5094114;28;20456;-43
2022/12/09 11:25:25;;;;;;;19.93;15.33;;;6.00;1.00;;;;;;5094187;28;20433;-46
2022/12/09 11:27:51;;;;;;;18.93;15.43;;;6.00;1.00;;;;;;5093354;28;20434;-43
2022/12/09 11:30:26;;;;;;;18.50;16.20;;;6.00;1.00;;;;;;5095416;28;20515;-41
2022/12/09 11:33:37;;;;;;;16.50;14.67;;;6.00;1.00;;;;;;5077212;28;20237;-44
2022/12/09 11:36:23;;;;;;;17.00;14.87;;;6.00;1.00;;;;;;5095277;28;20410;-45
2022/12/09 11:38:51;;;;;;;17.67;15.03;;;6.10;1.00;;;;;;5075527;28;20449;-44
2022/12/09 11:44:33;;;;;;;7.90;6.43;;;7.80;1.00;;;;;;5092777;28;20433;-50
2022/12/09 11:47:05;;;;;;;6.90;6.17;;;9.30;1.00;;;;;;5079574;28;20466;-50
2022/12/09 11:49:35;;;;;;;7.57;6.47;;;10.10;1.00;;;;;;5091485;28;20485;-47
2022/12/09 11:52:27;;;;;;;8.33;6.50;;;10.90;99.90;;;;;;5076317;28;20418;-48
2022/12/09 11:55:26;;;;;;;7.50;6.43;;;11.70;99.90;;;;;;5092328;28;20501;-42
2022/12/09 11:58:00;;;;;;;11.40;10.10;;;12.10;99.90;;;;;;5020249;28;20594;-43
2022/12/09 12:00:32;;;;;;;15.17;12.07;;;12.00;1.00;;;;;;5088112;28;20746;-45
2022/12/09 12:03:17;;;;;;;15.20;13.70;;;11.50;1.00;;;;;;5091497;28;20441;-43
2022/12/09 12:05:53;;;;;;;17.73;15.07;;;10.90;99.90;;;;;;5096304;28;20828;-45
2022/12/09 12:08:35;;;;;;;17.43;15.63;;;10.20;1.00;;;;;;5114189;28;20429;-47
2022/12/09 12:11:12;;;;;;;17.43;15.63;;;9.60;1.00;;;;;;5115028;28;20405;-45
2022/12/09 12:13:41;;;;;;;16.13;14.43;;;9.10;99.90;;;;;;5114176;28;20433;-44
2022/12/09 12:16:20;;;;;;;17.30;15.60;;;8.70;99.90;;;;;;5094389;28;20401;-46
2022/12/09 12:19:08;;;;;;;18.00;16.10;;;8.40;99.90;;;;;;5110604;28;20421;-44
2022/12/09 12:22:04;;;;;;;17.97;16.07;;;8.10;99.90;;;;;;5099003;28;20736;-45
2022/12/09 12:24:48;;;;;;;15.23;13.63;;;7.80;99.90;;;;;;5093872;28;20639;-46
2022/12/09 12:27:33;;;;;;;16.90;14.97;;;7.60;99.90;;;;;;5074714;28;20442;-46
2022/12/09 12:30:17;;;;;;;16.80;15.17;;;7.40;89.30;;;;;;5074811;28;20619;-46
2022/12/09 12:33:32;;;;;;;17.10;15.33;;;7.20;54.70;;;;;;5074703;28;20437;-45
2022/12/09 12:36:22;;;;;;;18.53;16.27;;;7.10;44.40;;;;;;5048883;28;20483;-44
2022/12/09 12:39:04;;;;;;;22.73;16.73;;;6.90;31.50;;;;;;5093522;28;20728;-43
2022/12/09 12:41:46;;;;;;;17.73;15.60;;;6.80;23.90;;;;;;5076270;28;20705;-43
2022/12/09 12:47:12;;;;;;;17.77;15.97;;;6.60;20.90;;;;;;5091563;28;20514;-45
2022/12/09 12:50:05;;;;;;;18.43;16.63;;;6.50;20.10;;;;;;5091477;28;20468;-45
2022/12/09 12:52:37;;;;;;;17.87;15.97;;;6.50;20.90;;;;;;5091281;28;20781;-44
2022/12/09 12:55:30;;;;;;;21.10;16.73;;;6.50;19.10;;;;;;5093583;28;20814;-47
2022/12/09 12:58:36;;;;;;;16.93;15.13;;;6.40;18.50;;;;;;5094284;28;20414;-44
2022/12/09 13:01:21;;;;;;;17.30;14.77;;;6.30;18.10;;;;;;4991044;28;20429;-44
2022/12/09 13:04:12;;;;;;;17.00;15.23;;;6.30;17.10;;;;;;5088396;28;20495;-46
2022/12/09 13:06:47;;;;;;;17.77;15.40;;;6.30;15.80;;;;;;5076943;28;20551;-43
2022/12/09 13:09:20;;;;;;;19.13;15.57;;;6.20;14.20;;;;;;5095060;28;20640;-44
2022/12/09 13:12:06;;;;;;;16.70;14.90;;;6.20;15.20;;;;;;5092947;28;20455;-45